Time;durP1;ratioP1;P1;durP2;ratioP2;P2;SDS_P1;SDS_P2;PMS_P1;PMS_P2;Temp;Humidity;BMP_temperature;BMP_pressure;BME280_temperature;BME280_humidity;BME280_pressure;Samples;Min_cycle;Max_cycle;Signal;HPM_P1;HPM_P2
2021/09/03 00:01:06;;;;;;;12.68;9.65;;;;;;;;;;5033218;28;20429;-61
2021/09/03 00:03:32;;;;;;;15.95;9.82;;;;;;;;;;5032675;28;20026;-61
2021/09/03 00:06:01;;;;;;;12.45;9.02;;;;;;;;;;5031912;28;20139;-61
2021/09/03 00:08:27;;;;;;;11.40;9.18;;;;;;;;;;5032021;28;20065;-61
2021/09/03 00:10:53;;;;;;;12.30;8.70;;;;;;;;;;5031734;28;20036;-61
2021/09/03 00:13:19;;;;;;;11.13;8.68;;;;;;;;;;5032186;28;20040;-61
2021/09/03 00:15:45;;;;;;;13.88;8.60;;;;;;;;;;5032464;28;20045;-61
2021/09/03 00:18:11;;;;;;;11.30;8.27;;;;;;;;;;5031469;28;20033;-61
2021/09/03 00:20:37;;;;;;;13.68;9.63;;;;;;;;;;5032532;28;20061;-61
2021/09/03 00:23:03;;;;;;;11.00;9.13;;;;;;;;;;5031308;28;20064;-61
2021/09/03 00:25:30;;;;;;;13.13;9.43;;;;;;;;;;5032169;28;20071;-61
2021/09/03 00:27:56;;;;;;;14.63;8.90;;;;;;;;;;5032141;28;20069;-61
2021/09/03 00:30:22;;;;;;;15.68;8.80;;;;;;;;;;5031265;28;20044;-61
2021/09/03 00:32:48;;;;;;;13.88;9.00;;;;;;;;;;5029070;28;20029;-61
2021/09/03 00:35:14;;;;;;;13.23;9.13;;;;;;;;;;5033569;28;20025;-61
2021/09/03 00:37:40;;;;;;;12.77;8.93;;;;;;;;;;5031772;28;20384;-61
2021/09/03 00:40:06;;;;;;;11.18;8.35;;;;;;;;;;5033617;28;20064;-62
2021/09/03 00:42:32;;;;;;;11.77;8.70;;;;;;;;;;5032677;28;20037;-61
2021/09/03 00:44:59;;;;;;;10.80;8.60;;;;;;;;;;5031419;28;20322;-61
2021/09/03 00:47:25;;;;;;;14.55;9.65;;;;;;;;;;5033481;28;20022;-61
2021/09/03 00:49:51;;;;;;;12.57;9.10;;;;;;;;;;5033526;28;20040;-61
2021/09/03 00:52:17;;;;;;;12.52;9.25;;;;;;;;;;5033309;28;20021;-61
2021/09/03 00:54:43;;;;;;;16.05;8.48;;;;;;;;;;5049627;28;20388;-61
2021/09/03 00:57:09;;;;;;;13.63;8.43;;;;;;;;;;5034545;28;20034;-61
2021/09/03 00:59:35;;;;;;;12.05;8.85;;;;;;;;;;5037243;28;20117;-61
2021/09/03 01:02:01;;;;;;;11.75;9.02;;;;;;;;;;5037022;28;20040;-61
2021/09/03 01:04:27;;;;;;;10.98;8.55;;;;;;;;;;5035221;28;20029;-61
2021/09/03 01:06:53;;;;;;;13.95;8.75;;;;;;;;;;5035324;28;20068;-61
2021/09/03 01:09:19;;;;;;;13.10;8.63;;;;;;;;;;5034979;28;20029;-61
2021/09/03 01:11:45;;;;;;;11.35;8.38;;;;;;;;;;5037046;28;20060;-61
2021/09/03 01:14:11;;;;;;;14.07;8.48;;;;;;;;;;5035363;28;20029;-61
2021/09/03 01:16:37;;;;;;;11.02;8.07;;;;;;;;;;5035028;28;20033;-61
2021/09/03 01:19:04;;;;;;;10.52;7.93;;;;;;;;;;5036770;28;20143;-61
2021/09/03 01:21:30;;;;;;;11.07;8.90;;;;;;;;;;5035141;28;20460;-61
2021/09/03 01:23:56;;;;;;;13.38;8.27;;;;;;;;;;5034788;28;20068;-61
2021/09/03 01:26:22;;;;;;;9.68;8.18;;;;;;;;;;5034732;28;20396;-61
2021/09/03 01:28:48;;;;;;;11.93;8.57;;;;;;;;;;5034849;28;20021;-61
2021/09/03 01:31:14;;;;;;;11.95;8.55;;;;;;;;;;5035180;28;20060;-61
2021/09/03 01:33:40;;;;;;;10.05;8.50;;;;;;;;;;5049622;28;20116;-61
2021/09/03 01:36:06;;;;;;;12.88;9.00;;;;;;;;;;5033971;28;20204;-61
2021/09/03 01:38:33;;;;;;;15.45;9.98;;;;;;;;;;5034853;28;20155;-61
2021/09/03 01:40:59;;;;;;;13.82;8.70;;;;;;;;;;5034993;28;20033;-61
2021/09/03 01:43:25;;;;;;;11.25;7.65;;;;;;;;;;5034987;28;20033;-61
2021/09/03 01:45:52;;;;;;;12.90;8.30;;;;;;;;;;5034839;28;20033;-61
2021/09/03 01:48:18;;;;;;;10.52;8.40;;;;;;;;;;5033309;28;20432;-61
2021/09/03 01:50:44;;;;;;;11.02;8.55;;;;;;;;;;5033859;28;20033;-61
2021/09/03 01:53:10;;;;;;;11.38;9.27;;;;;;;;;;5034537;28;20124;-61
2021/09/03 01:55:36;;;;;;;11.80;9.23;;;;;;;;;;5036103;28;20497;-61
2021/09/03 01:58:02;;;;;;;14.55;10.10;;;;;;;;;;5036309;28;20025;-61
2021/09/03 02:00:28;;;;;;;11.68;9.27;;;;;;;;;;5033874;28;20045;-61
2021/09/03 02:02:54;;;;;;;12.85;9.77;;;;;;;;;;5035293;28;20030;-61
2021/09/03 02:05:20;;;;;;;14.77;10.13;;;;;;;;;;5033185;28;20040;-61
2021/09/03 02:07:46;;;;;;;12.65;8.98;;;;;;;;;;5034238;28;20104;-61
2021/09/03 02:10:12;;;;;;;10.55;8.75;;;;;;;;;;5034073;28;20097;-61
2021/09/03 02:12:38;;;;;;;11.60;8.52;;;;;;;;;;5034619;28;20041;-61
2021/09/03 02:15:05;;;;;;;12.60;9.63;;;;;;;;;;5033895;28;20468;-61
2021/09/03 02:17:31;;;;;;;11.32;9.05;;;;;;;;;;5033861;28;20033;-61
2021/09/03 02:19:57;;;;;;;12.10;8.30;;;;;;;;;;5034023;28;20049;-61
2021/09/03 02:22:23;;;;;;;11.25;8.40;;;;;;;;;;5033783;28;20036;-61
2021/09/03 02:24:49;;;;;;;10.95;8.50;;;;;;;;;;5034316;28;20034;-61
2021/09/03 02:27:15;;;;;;;11.15;8.40;;;;;;;;;;5033284;28;20050;-61
2021/09/03 02:29:41;;;;;;;12.82;8.40;;;;;;;;;;5033962;28;20500;-61
2021/09/03 02:32:07;;;;;;;11.57;7.70;;;;;;;;;;5034091;28;20028;-61
2021/09/03 02:34:33;;;;;;;11.93;7.80;;;;;;;;;;5033932;28;20037;-61
2021/09/03 02:36:59;;;;;;;9.88;7.85;;;;;;;;;;5035109;28;20062;-61
2021/09/03 02:39:25;;;;;;;11.48;8.80;;;;;;;;;;5033822;28;20511;-61
2021/09/03 02:41:51;;;;;;;13.48;8.65;;;;;;;;;;5033344;28;20029;-69
2021/09/03 02:44:17;;;;;;;12.70;8.40;;;;;;;;;;5034990;28;20049;-69
2021/09/03 02:46:43;;;;;;;10.82;8.48;;;;;;;;;;5033647;28;20031;-69
2021/09/03 02:49:09;;;;;;;12.43;8.40;;;;;;;;;;5034589;28;20026;-69
2021/09/03 02:51:35;;;;;;;11.30;8.23;;;;;;;;;;5033773;28;20040;-69
2021/09/03 02:54:02;;;;;;;12.05;9.15;;;;;;;;;;5033043;28;20103;-69
2021/09/03 02:56:28;;;;;;;11.63;8.65;;;;;;;;;;5033347;28;20108;-69
2021/09/03 02:58:53;;;;;;;12.77;8.95;;;;;;;;;;5037784;28;20116;-69
2021/09/03 03:01:19;;;;;;;13.82;8.48;;;;;;;;;;5033054;28;20033;-69
2021/09/03 03:03:46;;;;;;;11.35;7.93;;;;;;;;;;5033226;28;20034;-69
2021/09/03 03:06:11;;;;;;;10.25;8.70;;;;;;;;;;5032753;28;20026;-69
2021/09/03 03:08:37;;;;;;;11.98;9.18;;;;;;;;;;5033261;28;20048;-69
2021/09/03 03:11:03;;;;;;;10.05;8.40;;;;;;;;;;5033020;28;20120;-69
2021/09/03 03:13:30;;;;;;;13.20;8.10;;;;;;;;;;5033358;28;20559;-69
2021/09/03 03:15:56;;;;;;;13.57;8.50;;;;;;;;;;5034480;28;20100;-69
2021/09/03 03:18:23;;;;;;;12.75;8.52;;;;;;;;;;5032925;28;20029;-69
2021/09/03 03:20:49;;;;;;;12.65;8.45;;;;;;;;;;5030086;28;20041;-69
2021/09/03 03:23:16;;;;;;;10.25;8.13;;;;;;;;;;5032740;28;20060;-69
2021/09/03 03:25:42;;;;;;;11.35;7.93;;;;;;;;;;5033034;28;20030;-69
2021/09/03 03:28:08;;;;;;;12.68;8.00;;;;;;;;;;5032964;28;20544;-69
2021/09/03 03:30:34;;;;;;;12.65;8.15;;;;;;;;;;5033096;28;20543;-69
2021/09/03 03:33:00;;;;;;;10.30;7.60;;;;;;;;;;5031715;28;20661;-69
2021/09/03 03:35:27;;;;;;;10.32;7.63;;;;;;;;;;5032618;28;20034;-69
2021/09/03 03:37:53;;;;;;;11.25;7.90;;;;;;;;;;5034449;28;20156;-69
2021/09/03 03:40:19;;;;;;;12.38;8.07;;;;;;;;;;5033970;28;20045;-65
2021/09/03 03:42:45;;;;;;;10.80;8.25;;;;;;;;;;5034414;28;20028;-66
2021/09/03 03:45:11;;;;;;;12.15;8.48;;;;;;;;;;5032128;28;20393;-66
2021/09/03 03:47:37;;;;;;;10.98;7.85;;;;;;;;;;5032485;28;20465;-66
2021/09/03 03:50:04;;;;;;;10.75;8.30;;;;;;;;;;5031864;28;20084;-67
2021/09/03 03:52:30;;;;;;;13.48;8.65;;;;;;;;;;5032274;28;20026;-67
2021/09/03 03:54:57;;;;;;;11.88;8.70;;;;;;;;;;5032299;28;20087;-66
2021/09/03 03:57:22;;;;;;;11.68;8.73;;;;;;;;;;5032007;28;20026;-66
2021/09/03 03:59:48;;;;;;;11.82;8.55;;;;;;;;;;5031448;28;20037;-67
2021/09/03 04:02:14;;;;;;;13.45;8.80;;;;;;;;;;5031751;28;20053;-66
2021/09/03 04:04:40;;;;;;;14.38;8.30;;;;;;;;;;5034112;28;20403;-66
2021/09/03 04:07:06;;;;;;;9.70;8.00;;;;;;;;;;5031911;28;20021;-69
2021/09/03 04:09:32;;;;;;;10.95;8.25;;;;;;;;;;5031370;28;20037;-76
2021/09/03 04:11:58;;;;;;;14.45;8.70;;;;;;;;;;5031929;28;20021;-69
2021/09/03 04:14:25;;;;;;;11.50;8.60;;;;;;;;;;5032582;28;20481;-68
2021/09/03 04:16:51;;;;;;;13.10;8.48;;;;;;;;;;5031916;28;20095;-69
2021/09/03 04:19:17;;;;;;;13.75;8.63;;;;;;;;;;5031327;28;20692;-69
2021/09/03 04:21:43;;;;;;;12.05;8.35;;;;;;;;;;5031580;28;20033;-70
2021/09/03 04:24:09;;;;;;;12.18;9.07;;;;;;;;;;5031215;28;20022;-69
2021/09/03 04:26:35;;;;;;;10.48;8.23;;;;;;;;;;5032481;28;20041;-69
2021/09/03 04:29:01;;;;;;;11.63;8.60;;;;;;;;;;5036393;28;20028;-69
2021/09/03 04:31:27;;;;;;;16.92;9.77;;;;;;;;;;5036213;28;20032;-69
2021/09/03 04:33:53;;;;;;;13.55;9.27;;;;;;;;;;5037783;28;20020;-69
2021/09/03 04:36:19;;;;;;;12.52;8.65;;;;;;;;;;5035301;28;20105;-69
2021/09/03 04:38:45;;;;;;;12.00;9.02;;;;;;;;;;5035272;28;20492;-69
2021/09/03 04:41:11;;;;;;;15.40;9.23;;;;;;;;;;5037798;28;20041;-68
2021/09/03 04:43:37;;;;;;;12.77;8.98;;;;;;;;;;5037312;28;20448;-69
2021/09/03 04:46:04;;;;;;;14.20;9.07;;;;;;;;;;5037219;28;20029;-69
2021/09/03 04:48:30;;;;;;;11.25;8.98;;;;;;;;;;5035769;28;20476;-69
2021/09/03 04:50:55;;;;;;;11.35;9.05;;;;;;;;;;5035111;28;20029;-68
2021/09/03 04:53:21;;;;;;;13.38;9.30;;;;;;;;;;5037358;28;20516;-67
2021/09/03 04:55:47;;;;;;;12.52;8.68;;;;;;;;;;5036904;28;20075;-69
2021/09/03 04:58:13;;;;;;;13.98;9.27;;;;;;;;;;5037024;28;20025;-69
2021/09/03 05:00:39;;;;;;;18.08;9.35;;;;;;;;;;5035400;28;20041;-69
2021/09/03 05:03:06;;;;;;;12.55;8.90;;;;;;;;;;5035225;28;20093;-70
2021/09/03 05:05:32;;;;;;;14.15;9.07;;;;;;;;;;5035585;28;20037;-70
2021/09/03 05:07:58;;;;;;;18.35;9.02;;;;;;;;;;5035620;28;20648;-69
2021/09/03 05:10:24;;;;;;;13.10;8.75;;;;;;;;;;5036527;28;20116;-69
2021/09/03 05:12:49;;;;;;;14.82;8.65;;;;;;;;;;5036800;28;20017;-69
2021/09/03 05:15:16;;;;;;;12.05;8.38;;;;;;;;;;5034648;28;20026;-69
2021/09/03 05:17:47;;;;;;;13.05;9.13;;;;;;;;;;5036858;28;20045;-68
2021/09/03 05:20:13;;;;;;;11.75;8.68;;;;;;;;;;5036761;28;20484;-68
2021/09/03 05:22:39;;;;;;;11.85;8.10;;;;;;;;;;5035776;28;20030;-68
2021/09/03 05:25:05;;;;;;;12.60;8.73;;;;;;;;;;5036386;28;20086;-68
2021/09/03 05:27:31;;;;;;;11.52;8.73;;;;;;;;;;5034834;28;20045;-68
2021/09/03 05:29:57;;;;;;;14.45;8.55;;;;;;;;;;5035378;28;20033;-68
2021/09/03 05:32:23;;;;;;;12.95;9.25;;;;;;;;;;5036087;28;20544;-68
2021/09/03 05:34:49;;;;;;;11.00;8.25;;;;;;;;;;5034741;28;20494;-69
2021/09/03 05:37:16;;;;;;;17.15;9.43;;;;;;;;;;5034332;28;20511;-69
2021/09/03 05:39:42;;;;;;;11.52;8.02;;;;;;;;;;5033638;28;20049;-70
2021/09/03 05:42:08;;;;;;;11.52;7.95;;;;;;;;;;5033008;28;20021;-69
2021/09/03 05:44:34;;;;;;;13.00;8.73;;;;;;;;;;5051649;28;20168;-69
2021/09/03 05:47:00;;;;;;;12.48;9.20;;;;;;;;;;5035138;28;20104;-69
2021/09/03 05:49:26;;;;;;;11.40;8.30;;;;;;;;;;5035892;28;20034;-70
2021/09/03 05:51:52;;;;;;;15.52;9.48;;;;;;;;;;5035481;28;20488;-70
2021/09/03 05:54:18;;;;;;;14.35;9.57;;;;;;;;;;5032762;28;20105;-70
2021/09/03 05:56:44;;;;;;;13.93;9.40;;;;;;;;;;5033009;28;20040;-70
2021/09/03 05:59:10;;;;;;;12.57;8.95;;;;;;;;;;5033348;28;20036;-71
2021/09/03 06:01:36;;;;;;;15.40;8.98;;;;;;;;;;5032853;28;20045;-70
2021/09/03 06:04:02;;;;;;;12.32;7.32;;;;;;;;;;5032989;28;20014;-70
2021/09/03 06:06:28;;;;;;;10.30;8.25;;;;;;;;;;5033469;28;20852;-70
2021/09/03 06:08:54;;;;;;;13.15;8.18;;;;;;;;;;5030206;28;20021;-70
2021/09/03 06:11:22;;;;;;;13.32;8.40;;;;;;;;;;5031886;28;20030;-70
2021/09/03 06:13:48;;;;;;;12.73;8.25;;;;;;;;;;5033764;28;20033;-70
2021/09/03 06:16:14;;;;;;;13.45;8.50;;;;;;;;;;5034684;28;20060;-70
2021/09/03 06:18:40;;;;;;;12.63;8.00;;;;;;;;;;5034046;28;20061;-70
2021/09/03 06:21:06;;;;;;;11.95;7.88;;;;;;;;;;5031798;28;20033;-70
2021/09/03 06:23:32;;;;;;;17.73;7.60;;;;;;;;;;5033304;28;20778;-70
2021/09/03 06:25:58;;;;;;;14.40;8.02;;;;;;;;;;5033451;28;20041;-70
2021/09/03 06:28:24;;;;;;;11.68;7.25;;;;;;;;;;5034401;28;20041;-70
2021/09/03 06:30:50;;;;;;;10.68;7.75;;;;;;;;;;5048973;28;20112;-70
2021/09/03 06:33:16;;;;;;;12.73;8.10;;;;;;;;;;5032303;28;20040;-70
2021/09/03 06:35:42;;;;;;;11.35;7.78;;;;;;;;;;5033666;28;20112;-71
2021/09/03 06:38:08;;;;;;;11.18;7.50;;;;;;;;;;5033443;28;20465;-70
2021/09/03 06:40:34;;;;;;;13.23;7.60;;;;;;;;;;5041192;28;20041;-70
2021/09/03 06:43:00;;;;;;;11.75;7.28;;;;;;;;;;5033242;28;20032;-70
2021/09/03 06:45:26;;;;;;;11.00;7.28;;;;;;;;;;5033206;28;20025;-70
2021/09/03 06:47:52;;;;;;;10.32;7.35;;;;;;;;;;5031552;28;20480;-71
2021/09/03 06:50:18;;;;;;;13.35;7.85;;;;;;;;;;5032207;28;20040;-70
2021/09/03 06:52:45;;;;;;;12.63;7.97;;;;;;;;;;5034367;28;20397;-70
2021/09/03 06:55:11;;;;;;;13.23;7.72;;;;;;;;;;5033725;28;20104;-70
2021/09/03 06:57:41;;;;;;;11.10;7.88;;;;;;;;;;5018732;28;20033;-70
2021/09/03 07:00:07;;;;;;;13.88;8.55;;;;;;;;;;5043231;28;20037;-70
2021/09/03 07:02:33;;;;;;;11.75;7.10;;;;;;;;;;5033193;28;20366;-70
2021/09/03 07:05:00;;;;;;;15.45;7.93;;;;;;;;;;5033974;28;20033;-70
2021/09/03 07:07:26;;;;;;;11.90;7.28;;;;;;;;;;5032137;28;20037;-70
2021/09/03 07:09:53;;;;;;;13.80;7.95;;;;;;;;;;5041193;28;20370;-70
2021/09/03 07:12:19;;;;;;;12.53;8.10;;;;;;;;;;5030906;28;20021;-71
2021/09/03 07:14:45;;;;;;;12.23;7.72;;;;;;;;;;5032106;28;20033;-69
2021/09/03 07:17:11;;;;;;;14.00;8.20;;;;;;;;;;5031919;28;20448;-70
2021/09/03 07:19:38;;;;;;;13.10;7.80;;;;;;;;;;5031401;28;20673;-70
2021/09/03 07:22:04;;;;;;;13.75;7.70;;;;;;;;;;5032441;28;20030;-70
2021/09/03 07:24:30;;;;;;;13.10;6.22;;;;;;;;;;5032480;28;20025;-70
2021/09/03 07:26:56;;;;;;;18.90;7.25;;;;;;;;;;5031337;28;20060;-70
2021/09/03 07:29:22;;;;;;;11.93;6.70;;;;;;;;;;5044795;28;20094;-70
2021/09/03 07:31:48;;;;;;;13.80;6.63;;;;;;;;;;5039424;28;20034;-70
2021/09/03 07:34:14;;;;;;;12.00;6.50;;;;;;;;;;5032092;28;20032;-70
2021/09/03 07:36:40;;;;;;;14.65;7.05;;;;;;;;;;5032581;28;20022;-70
2021/09/03 07:39:06;;;;;;;13.18;7.55;;;;;;;;;;5038280;28;20025;-70
2021/09/03 07:41:32;;;;;;;14.20;7.18;;;;;;;;;;5031953;28;20524;-70
2021/09/03 07:43:58;;;;;;;11.15;6.47;;;;;;;;;;5032534;28;20112;-70
2021/09/03 07:46:25;;;;;;;10.90;6.82;;;;;;;;;;5031845;28;20541;-70
2021/09/03 07:48:51;;;;;;;10.95;6.78;;;;;;;;;;5032386;28;20036;-70
2021/09/03 07:51:17;;;;;;;9.82;5.82;;;;;;;;;;5031450;28;20104;-70
2021/09/03 07:53:43;;;;;;;11.40;6.55;;;;;;;;;;5033002;28;20259;-70
2021/09/03 07:56:09;;;;;;;11.80;6.35;;;;;;;;;;5033563;28;20022;-70
2021/09/03 07:58:35;;;;;;;11.55;6.10;;;;;;;;;;5036403;28;20029;-70
2021/09/03 08:01:02;;;;;;;9.93;5.63;;;;;;;;;;5045482;28;20503;-70
2021/09/03 08:03:28;;;;;;;13.25;6.13;;;;;;;;;;5031834;28;20485;-70
2021/09/03 08:05:54;;;;;;;11.77;5.80;;;;;;;;;;5031222;28;20033;-70
2021/09/03 08:08:20;;;;;;;11.38;5.47;;;;;;;;;;5033649;28;20087;-70
2021/09/03 08:10:46;;;;;;;12.45;6.10;;;;;;;;;;5039935;28;20039;-70
2021/09/03 08:13:12;;;;;;;11.50;5.70;;;;;;;;;;5033507;28;20068;-70
2021/09/03 08:15:39;;;;;;;9.60;5.70;;;;;;;;;;5031846;28;20051;-70
2021/09/03 08:18:05;;;;;;;11.07;6.15;;;;;;;;;;5030973;28;20159;-70
2021/09/03 08:20:32;;;;;;;12.10;5.85;;;;;;;;;;5031155;28;20076;-69
2021/09/03 08:22:58;;;;;;;9.27;5.82;;;;;;;;;;5030986;28;20096;-70
2021/09/03 08:25:24;;;;;;;10.73;5.85;;;;;;;;;;5031464;28;20033;-70
2021/09/03 08:27:51;;;;;;;10.00;5.20;;;;;;;;;;5031195;28;20064;-71
2021/09/03 08:30:17;;;;;;;10.80;5.80;;;;;;;;;;5029677;28;20022;-70
2021/09/03 08:32:44;;;;;;;10.90;5.10;;;;;;;;;;5030939;28;20022;-70
2021/09/03 08:35:10;;;;;;;9.05;5.32;;;;;;;;;;5031243;28;20286;-70
2021/09/03 08:37:36;;;;;;;12.05;5.93;;;;;;;;;;5030550;28;20036;-71
2021/09/03 08:40:03;;;;;;;9.70;5.55;;;;;;;;;;5039029;28;20029;-71
2021/09/03 08:42:31;;;;;;;9.65;5.60;;;;;;;;;;5030898;28;20037;-71
2021/09/03 08:44:57;;;;;;;12.68;6.45;;;;;;;;;;5031048;28;20119;-71
2021/09/03 08:47:23;;;;;;;11.63;6.07;;;;;;;;;;5031763;28;20029;-68
2021/09/03 08:49:53;;;;;;;12.23;6.35;;;;;;;;;;5031038;28;20473;-70
2021/09/03 08:52:19;;;;;;;12.00;5.93;;;;;;;;;;5030393;28;20041;-70
2021/09/03 08:54:45;;;;;;;11.98;5.72;;;;;;;;;;5032277;28;20027;-70
2021/09/03 08:57:13;;;;;;;10.93;5.95;;;;;;;;;;5030350;28;20022;-70
2021/09/03 08:59:39;;;;;;;12.60;6.05;;;;;;;;;;5032066;28;20029;-70
2021/09/03 09:02:18;;;;;;;10.70;5.88;;;;;;;;;;5031181;28;20029;-70
2021/09/03 09:04:45;;;;;;;12.32;5.95;;;;;;;;;;5029700;28;20026;-70
2021/09/03 09:07:12;;;;;;;9.75;5.78;;;;;;;;;;5030730;28;20033;-70
2021/09/03 09:09:47;;;;;;;11.70;5.70;;;;;;;;;;5031912;28;20104;-70
2021/09/03 09:12:14;;;;;;;9.40;6.25;;;;;;;;;;5028674;28;20017;-70
2021/09/03 09:15:00;;;;;;;11.25;5.82;;;;;;;;;;5033837;28;20492;-70
2021/09/03 09:17:30;;;;;;;11.05;5.97;;;;;;;;;;5034473;28;20037;-69
2021/09/03 09:19:56;;;;;;;11.52;5.88;;;;;;;;;;5035046;28;20127;-69
2021/09/03 09:22:22;;;;;;;10.95;5.70;;;;;;;;;;5034884;28;20561;-69
2021/09/03 09:24:48;;;;;;;13.20;5.80;;;;;;;;;;5035759;28;20040;-69
2021/09/03 09:27:24;;;;;;;10.73;5.75;;;;;;;;;;5033275;28;20041;-68
2021/09/03 09:29:50;;;;;;;11.50;5.85;;;;;;;;;;5032536;28;20053;-68
2021/09/03 09:32:16;;;;;;;9.93;5.75;;;;;;;;;;5036438;28;20440;-68
2021/09/03 09:34:46;;;;;;;13.15;5.80;;;;;;;;;;5035886;28;20096;-68
2021/09/03 09:37:17;;;;;;;11.70;5.70;;;;;;;;;;5035614;28;20050;-68
2021/09/03 09:39:57;;;;;;;8.45;4.95;;;;;;;;;;5034600;28;20040;-68
2021/09/03 09:42:27;;;;;;;10.13;5.35;;;;;;;;;;5033979;28;20022;-68
2021/09/03 09:45:02;;;;;;;8.95;5.50;;;;;;;;;;5039919;28;20017;-69
2021/09/03 09:47:28;;;;;;;10.50;5.57;;;;;;;;;;5034768;28;20036;-68
2021/09/03 09:49:54;;;;;;;11.73;5.25;;;;;;;;;;5031538;28;20030;-68
2021/09/03 09:52:34;;;;;;;8.95;5.68;;;;;;;;;;5034461;28;20025;-68
2021/09/03 09:55:00;;;;;;;9.60;5.38;;;;;;;;;;5034427;28;20104;-71
2021/09/03 09:57:26;;;;;;;9.88;5.05;;;;;;;;;;5019293;28;20022;-71
2021/09/03 09:59:52;;;;;;;10.18;5.82;;;;;;;;;;5037737;28;20045;-70
2021/09/03 10:02:18;;;;;;;12.85;6.10;;;;;;;;;;5033903;28;20040;-71
2021/09/03 10:04:44;;;;;;;12.32;6.43;;;;;;;;;;5032275;28;20723;-72
2021/09/03 10:07:11;;;;;;;13.07;5.75;;;;;;;;;;5035519;28;20087;-74
2021/09/03 10:09:37;;;;;;;12.65;5.65;;;;;;;;;;5029293;28;20444;-74
2021/09/03 10:12:03;;;;;;;15.20;5.93;;;;;;;;;;5032197;28;20412;-73
2021/09/03 10:14:31;;;;;;;11.05;5.70;;;;;;;;;;5033940;28;20131;-70
2021/09/03 10:16:57;;;;;;;8.60;5.57;;;;;;;;;;5037859;28;20041;-70
2021/09/03 10:19:25;;;;;;;11.85;6.18;;;;;;;;;;5033492;28;20083;-70
2021/09/03 10:21:54;;;;;;;10.18;5.47;;;;;;;;;;5029936;28;20029;-70
2021/09/03 10:24:24;;;;;;;11.82;6.07;;;;;;;;;;5031159;28;20018;-70
2021/09/03 10:26:52;;;;;;;10.85;5.88;;;;;;;;;;5031282;28;20838;-69
2021/09/03 10:29:23;;;;;;;13.55;6.07;;;;;;;;;;5033764;28;20029;-70
2021/09/03 10:32:08;;;;;;;9.30;5.60;;;;;;;;;;5031000;28;20021;-69
2021/09/03 10:34:55;;;;;;;13.80;6.13;;;;;;;;;;5032030;28;20056;-69
2021/09/03 10:37:25;;;;;;;9.52;6.07;;;;;;;;;;5029880;28;20421;-69
2021/09/03 10:39:55;;;;;;;10.85;6.47;;;;;;;;;;5038358;28;20036;-69
2021/09/03 10:42:33;;;;;;;10.20;5.43;;;;;;;;;;5031545;28;20025;-69
2021/09/03 10:45:02;;;;;;;12.63;6.13;;;;;;;;;;5030714;28;20030;-69
2021/09/03 10:47:35;;;;;;;10.25;5.63;;;;;;;;;;5040937;28;20056;-69
2021/09/03 10:50:11;;;;;;;14.05;6.40;;;;;;;;;;5036637;28;20096;-69
2021/09/03 10:52:38;;;;;;;10.73;5.45;;;;;;;;;;5031574;28;20478;-69
2021/09/03 10:55:07;;;;;;;12.00;6.10;;;;;;;;;;5032068;28;20032;-70
2021/09/03 10:57:53;;;;;;;10.52;6.25;;;;;;;;;;5038812;28;20051;-69
2021/09/03 11:00:19;;;;;;;10.75;6.20;;;;;;;;;;5030748;28;20037;-69
2021/09/03 11:02:45;;;;;;;11.02;6.55;;;;;;;;;;5032448;28;20034;-69
2021/09/03 11:05:12;;;;;;;9.82;5.93;;;;;;;;;;5034037;28;20036;-73
2021/09/03 11:07:45;;;;;;;11.90;6.35;;;;;;;;;;5032985;28;20080;-70
2021/09/03 11:10:22;;;;;;;11.45;5.80;;;;;;;;;;5022131;28;20461;-66
2021/09/03 11:12:49;;;;;;;8.93;6.05;;;;;;;;;;5029066;28;20029;-65
2021/09/03 11:15:15;;;;;;;11.60;6.17;;;;;;;;;;5031492;28;20033;-72
2021/09/03 11:17:41;;;;;;;10.40;5.97;;;;;;;;;;5031393;28;20294;-60
2021/09/03 11:20:08;;;;;;;9.60;5.85;;;;;;;;;;5034200;28;20076;-66
2021/09/03 11:22:37;;;;;;;8.93;5.50;;;;;;;;;;5031716;28;20044;-66
2021/09/03 11:25:04;;;;;;;10.82;6.28;;;;;;;;;;5033918;28;20465;-66
2021/09/03 11:27:30;;;;;;;10.63;6.65;;;;;;;;;;5025564;28;20428;-67
2021/09/03 11:29:58;;;;;;;10.57;6.20;;;;;;;;;;5046544;28;20022;-67
2021/09/03 11:32:24;;;;;;;10.45;6.40;;;;;;;;;;5034550;28;20389;-65
2021/09/03 11:35:00;;;;;;;8.30;5.78;;;;;;;;;;5031771;28;20025;-65
2021/09/03 11:37:29;;;;;;;10.77;6.60;;;;;;;;;;5031880;28;20025;-65
2021/09/03 11:40:06;;;;;;;10.23;6.15;;;;;;;;;;5021569;28;20033;-67
2021/09/03 11:42:33;;;;;;;12.63;6.07;;;;;;;;;;5030390;28;20036;-65
2021/09/03 11:45:10;;;;;;;10.02;6.40;;;;;;;;;;5031000;28;20026;-66
2021/09/03 11:47:40;;;;;;;11.23;6.70;;;;;;;;;;5030240;28;20045;-65
2021/09/03 11:50:08;;;;;;;11.40;7.22;;;;;;;;;;5030287;28;20428;-66
2021/09/03 11:52:34;;;;;;;14.07;6.25;;;;;;;;;;5015081;28;20604;-65
2021/09/03 11:55:01;;;;;;;11.10;6.15;;;;;;;;;;5031484;28;20039;-65
2021/09/03 11:57:27;;;;;;;12.35;6.60;;;;;;;;;;5031299;28;20088;-66
2021/09/03 11:59:54;;;;;;;8.45;5.72;;;;;;;;;;5031659;28;20026;-66
2021/09/03 12:02:20;;;;;;;11.60;6.60;;;;;;;;;;5024895;28;20022;-66
2021/09/03 12:04:46;;;;;;;10.50;6.38;;;;;;;;;;5026774;28;20037;-66
2021/09/03 12:07:17;;;;;;;11.73;6.75;;;;;;;;;;5032450;28;20049;-66
2021/09/03 12:09:44;;;;;;;11.77;6.65;;;;;;;;;;5038428;28;20516;-66
2021/09/03 12:12:10;;;;;;;16.93;7.53;;;;;;;;;;5030856;28;20026;-66
2021/09/03 12:14:36;;;;;;;11.18;6.75;;;;;;;;;;5030933;28;20582;-66
2021/09/03 12:17:03;;;;;;;11.57;6.90;;;;;;;;;;5023547;28;20068;-66
2021/09/03 12:19:29;;;;;;;12.10;6.23;;;;;;;;;;5033416;28;20384;-66
2021/09/03 12:21:55;;;;;;;12.98;6.90;;;;;;;;;;5033400;28;20270;-66
2021/09/03 12:24:22;;;;;;;10.00;6.43;;;;;;;;;;5028905;28;20108;-66
2021/09/03 12:26:53;;;;;;;11.77;6.57;;;;;;;;;;5021161;28;20053;-66
2021/09/03 12:29:30;;;;;;;13.82;6.88;;;;;;;;;;5041388;28;20117;-66
2021/09/03 12:31:56;;;;;;;12.63;7.05;;;;;;;;;;5040277;28;20087;-68
2021/09/03 12:34:26;;;;;;;12.77;6.90;;;;;;;;;;5041355;28;20025;-65
2021/09/03 12:36:59;;;;;;;10.55;6.10;;;;;;;;;;5032154;28;20026;-66
2021/09/03 12:39:26;;;;;;;14.55;6.53;;;;;;;;;;5039139;28;20039;-66
2021/09/03 12:41:52;;;;;;;9.63;6.40;;;;;;;;;;5031046;28;20072;-66
2021/09/03 12:44:24;;;;;;;13.52;6.97;;;;;;;;;;5032712;28;20037;-66
2021/09/03 12:46:51;;;;;;;14.60;6.22;;;;;;;;;;5032880;28;20500;-66
2021/09/03 12:49:19;;;;;;;11.75;6.32;;;;;;;;;;5032566;28;20037;-66
2021/09/03 12:51:46;;;;;;;12.20;6.75;;;;;;;;;;5047223;28;20127;-66
2021/09/03 12:54:13;;;;;;;12.52;6.40;;;;;;;;;;5049407;28;20029;-66
2021/09/03 12:56:40;;;;;;;17.90;7.00;;;;;;;;;;5036338;28;20030;-66
2021/09/03 12:59:07;;;;;;;11.82;7.28;;;;;;;;;;5034951;28;20101;-62
2021/09/03 13:01:34;;;;;;;11.00;6.43;;;;;;;;;;5036154;28;20037;-67
2021/09/03 13:04:00;;;;;;;12.43;6.87;;;;;;;;;;5035456;28;20029;-66
2021/09/03 13:06:26;;;;;;;15.43;7.25;;;;;;;;;;5034751;28;20262;-69
2021/09/03 13:08:52;;;;;;;20.42;7.50;;;;;;;;;;5039334;28;20013;-65
2021/09/03 13:11:19;;;;;;;14.63;6.82;;;;;;;;;;5036890;28;20268;-65
2021/09/03 13:13:45;;;;;;;11.13;7.00;;;;;;;;;;5035088;28;20025;-65
2021/09/03 13:16:11;;;;;;;15.13;7.70;;;;;;;;;;5041240;28;20091;-65
2021/09/03 13:18:37;;;;;;;11.52;6.85;;;;;;;;;;5033301;28;20596;-65
2021/09/03 13:21:04;;;;;;;14.35;7.45;;;;;;;;;;5034368;28;20037;-65
2021/09/03 13:23:30;;;;;;;14.00;6.73;;;;;;;;;;5034919;28;20036;-65
2021/09/03 13:25:56;;;;;;;15.73;7.22;;;;;;;;;;5033975;28;20037;-65
2021/09/03 13:28:23;;;;;;;12.18;7.32;;;;;;;;;;5035533;28;20034;-66
2021/09/03 13:30:49;;;;;;;14.15;7.25;;;;;;;;;;5049511;28;20473;-65
2021/09/03 13:33:15;;;;;;;13.68;7.45;;;;;;;;;;5033844;28;20084;-67
2021/09/03 13:35:44;;;;;;;12.18;7.03;;;;;;;;;;5035185;28;20385;-65
2021/09/03 13:38:11;;;;;;;22.05;7.28;;;;;;;;;;5030925;28;20552;-65
2021/09/03 13:40:37;;;;;;;13.25;7.53;;;;;;;;;;5042306;28;20064;-64
2021/09/03 13:43:03;;;;;;;18.60;7.38;;;;;;;;;;5031342;28;20105;-64
2021/09/03 13:45:36;;;;;;;17.02;8.00;;;;;;;;;;5034280;28;20379;-64
2021/09/03 13:48:03;;;;;;;13.95;7.40;;;;;;;;;;5034768;28;20018;-64
2021/09/03 13:50:29;;;;;;;15.85;7.30;;;;;;;;;;5033554;28;20496;-64
2021/09/03 13:52:56;;;;;;;14.30;8.27;;;;;;;;;;5035534;28;20029;-64
2021/09/03 13:55:22;;;;;;;16.42;7.45;;;;;;;;;;5034201;28;20477;-64
2021/09/03 13:57:48;;;;;;;16.27;7.43;;;;;;;;;;5042998;28;20064;-64
2021/09/03 14:00:16;;;;;;;14.02;7.68;;;;;;;;;;5046558;28;20040;-64
2021/09/03 14:02:42;;;;;;;16.17;7.60;;;;;;;;;;5034655;28;20041;-64
2021/09/03 14:05:08;;;;;;;11.38;6.93;;;;;;;;;;5033707;28;20029;-64
2021/09/03 14:07:34;;;;;;;13.43;7.60;;;;;;;;;;5034007;28;20037;-64
2021/09/03 14:10:00;;;;;;;11.75;7.07;;;;;;;;;;5037859;28;20072;-64
2021/09/03 14:12:26;;;;;;;11.88;8.02;;;;;;;;;;5033253;28;20041;-64
2021/09/03 14:14:52;;;;;;;13.10;8.25;;;;;;;;;;5033128;28;20029;-64
2021/09/03 14:17:19;;;;;;;10.93;6.90;;;;;;;;;;5034630;28;20445;-64
2021/09/03 14:19:45;;;;;;;15.35;8.00;;;;;;;;;;5033441;28;20037;-64
2021/09/03 14:22:11;;;;;;;14.77;7.72;;;;;;;;;;5033146;28;20405;-65
2021/09/03 14:24:37;;;;;;;13.52;7.22;;;;;;;;;;5017832;28;20061;-64
2021/09/03 14:27:04;;;;;;;13.07;7.15;;;;;;;;;;5039733;28;20049;-64
2021/09/03 14:29:30;;;;;;;12.93;6.85;;;;;;;;;;5043010;28;20027;-64